Historyczne dane pomiarowe

Dodano dane terminowe – wersja testowa.

Dane z okresu 1951-2019

Wersja bazy: 1.34 [2019-03-16, lista zmian], aktualizacja planowana na 2019-04-15

Dane meteo z obszaru Polski uzyskane na podstawie danych udostępnionych przez Instytut Meteorologii i Gospodarki Wodnej – Państwowy Instytut Badawczy.

 

Wybierz Datę:    

       

TemperaturaWilgotnośćWiatrCiśnienieOpadyŚniegCzas trwania zjawisk
 Stacja t tx tn tng RH VA  wxwx mslp ppp RRR   cm mm wxwxwxwxwxwxwx
1967-04-17 13.3 17.8 6.7- 59.8- 1.3 5.7---- 0.0------------
1967-04-18 4.5 13.2 1.7- 64.5- 3.3 4.7---- 2.3------------
1967-04-19 1.4 5.4 -0.9- 79.3- 6.7 3.0---- 1.5------------
1967-04-20 10.3 16.2 0.6- 43.5- 1.3 8.3---- 0.0------------
1967-04-21 11.5 17.2 7.5- 66.3- 5.3 5.3---- 11.1------------
1967-04-22 6.5 8.9 2.0- 85.8- 8.0 1.3---- 0.0------------
1967-04-23 3.4 7.3 0.6- 77.0- 7.3 0.0---- 1.4------------
1967-04-24 1.2 3.7 0.2- 89.5- 6.7 4.3---- 6.1------------
1967-04-25 1.4 2.8 -0.6- 96.5- 8.0 1.7---- 7.2------------
1967-04-26 4.1 4.7 2.2- 98.0- 7.3 1.0---- 2.1------------
1967-04-27 6.6 9.4 3.0- 98.8- 8.0 1.7---- 3.2------------
1967-04-28 5.7 6.8 4.9- 97.8- 8.0 1.7---- 0.0------------
1967-04-29 8.8 14.6 5.1- 77.3- 0.0 3.3---- 0.0------------
1967-04-30 10.2 14.7 3.9- 83.8- 0.0 2.3---- 0.0------------
1967-05-01 16.3 21.6 5.6- 46.8- 0.0 4.3---- 0.0------------
1967-05-02 13.9 20.0 9.5- 75.0- 2.7 1.3---- 0.5------------
1967-05-03 12.9 18.1 9.6- 83.3- 4.7 1.0---- 8.7------------
1967-05-04 4.4 11.6 3.9- 90.5- 7.3 1.3---- 0.0------------
1967-05-05 4.6 6.2 3.0- 88.8- 8.0 1.7---- 0.0------------
1967-05-06 10.1 14.5 3.0- 87.5- 2.7 2.7---- 0.0------------
1967-05-07 13.2 19.3 4.2- 80.3- 2.7 0.7---- 0.0------------
1967-05-08 15.8 20.6 8.2- 70.0- 0.0 1.0---- 0.0------------
1967-05-09 14.9 20.0 9.4- 67.3- 0.0 1.7---- 0.0------------
1967-05-10 14.1 20.2 8.4- 67.0- 0.0 1.3---- 0.0------------
1967-05-11 14.5 18.4 6.4- 69.3- 0.0 3.3---- 0.0------------
1967-05-12 15.7 20.8 6.9- 67.3- 0.0 6.3---- 0.0------------
1967-05-13 20.2 25.7 9.4- 52.8- 0.0 0.7---- 0.0------------
1967-05-14 19.3 25.8 11.9- 52.3- 0.0 2.3---- 0.0------------
1967-05-15 22.1 26.4 14.1- 50.0- 1.3 3.0---- 0.0------------
1967-05-16 20.2 24.5 18.3- 63.5- 2.7 1.3---- 0.0------------
142.9 ms

 

Źródłem pochodzenia danych jest Instytut Meteorologii i Gospodarki Wodnej – Państwowy Instytut Badawczy. Dane Instytutu Meteorologii i Gospodarki Wodnej – Państwowego Instytutu Badawczego zostały przetworzone.

Dane źródłowe można odnaleźć na stronie https://dane.imgw.pl